createdAt,value
2022-12-19T00:00:48.642Z,0.00
2022-12-19T00:03:17.437Z,0.00
2022-12-19T00:05:48.630Z,0.00
2022-12-19T00:08:18.296Z,0.10
2022-12-19T00:10:57.579Z,0.00
2022-12-19T00:13:29.049Z,0.00
2022-12-19T00:16:03.385Z,0.10
2022-12-19T00:18:32.680Z,0.10
2022-12-19T00:21:02.673Z,0.10
2022-12-19T00:23:32.886Z,0.10
2022-12-19T00:26:10.008Z,0.10
2022-12-19T00:28:44.223Z,0.10
2022-12-19T00:31:18.631Z,0.10
2022-12-19T00:33:51.377Z,0.10
2022-12-19T00:36:24.574Z,0.20
2022-12-19T00:38:57.906Z,0.20
2022-12-19T00:41:30.182Z,0.20
2022-12-19T00:44:01.385Z,0.20
2022-12-19T00:46:31.863Z,0.50
2022-12-19T00:49:05.708Z,0.50
2022-12-19T00:51:36.225Z,0.50
2022-12-19T00:54:07.456Z,0.50
2022-12-19T00:56:38.540Z,0.60
2022-12-19T00:59:14.758Z,0.60
2022-12-19T01:01:49.104Z,0.60
2022-12-19T01:04:28.901Z,0.70
2022-12-19T01:07:02.563Z,0.70
2022-12-19T01:09:37.322Z,0.70
2022-12-19T01:12:25.156Z,0.70
2022-12-19T01:15:04.329Z,0.70
2022-12-19T01:17:44.294Z,0.80
2022-12-19T01:20:14.862Z,0.80
2022-12-19T01:22:49.222Z,0.80
2022-12-19T01:25:18.865Z,0.80
2022-12-19T01:27:47.465Z,0.90
2022-12-19T01:30:20.522Z,0.80
2022-12-19T01:32:52.575Z,0.80
2022-12-19T01:35:22.401Z,0.80
2022-12-19T01:37:51.754Z,0.80
2022-12-19T01:40:25.009Z,0.90
2022-12-19T01:42:55.311Z,0.80
2022-12-19T01:45:43.844Z,0.80
2022-12-19T01:48:22.391Z,0.80
2022-12-19T01:51:01.006Z,0.80
2022-12-19T01:53:49.010Z,0.80
2022-12-19T01:56:20.847Z,0.70
2022-12-19T01:59:05.827Z,0.70
2022-12-19T02:01:50.943Z,0.70
2022-12-19T02:04:25.262Z,0.60
2022-12-19T02:06:59.664Z,0.60
2022-12-19T02:09:34.159Z,0.60
2022-12-19T02:12:03.007Z,0.60
2022-12-19T02:14:34.708Z,0.60
2022-12-19T02:17:14.612Z,0.50
2022-12-19T02:20:29.404Z,0.50
2022-12-19T02:23:15.389Z,0.50
2022-12-19T02:26:04.676Z,0.50
2022-12-19T02:29:03.020Z,0.50
2022-12-19T02:31:38.077Z,0.50
2022-12-19T02:34:16.586Z,0.40
2022-12-19T02:36:57.003Z,0.40
2022-12-19T02:39:33.871Z,0.40
2022-12-19T02:42:06.921Z,0.40
2022-12-19T02:44:40.490Z,0.50
2022-12-19T02:47:11.519Z,0.40
2022-12-19T02:49:41.300Z,0.40
2022-12-19T02:52:11.620Z,0.40
2022-12-19T02:54:45.120Z,0.40
2022-12-19T02:57:26.736Z,0.40
2022-12-19T03:00:05.643Z,0.40
2022-12-19T03:02:51.379Z,0.40
2022-12-19T03:05:39.313Z,0.40
2022-12-19T03:08:15.685Z,0.40
2022-12-19T03:10:53.938Z,0.40
2022-12-19T03:13:27.839Z,0.40
2022-12-19T03:15:57.069Z,0.30
2022-12-19T03:18:27.687Z,0.40
2022-12-19T03:21:06.094Z,0.30
2022-12-19T03:23:35.041Z,0.30
2022-12-19T03:26:11.006Z,0.30
2022-12-19T03:28:44.344Z,0.10
2022-12-19T03:31:17.179Z,0.10
2022-12-19T03:33:51.336Z,0.10
2022-12-19T03:36:23.945Z,0.00
2022-12-19T03:38:54.809Z,0.00
2022-12-19T03:41:39.995Z,0.00
2022-12-19T03:44:10.054Z,0.00
2022-12-19T03:46:47.550Z,0.00
2022-12-19T03:49:20.317Z,0.00
2022-12-19T03:51:59.355Z,0.00
2022-12-19T03:54:30.832Z,0.00
2022-12-19T03:57:08.877Z,0.00
2022-12-19T03:59:43.066Z,0.00
2022-12-19T04:02:13.532Z,0.00
2022-12-19T04:04:54.064Z,0.00
2022-12-19T04:07:24.164Z,0.10
2022-12-19T04:09:59.832Z,0.10
2022-12-19T04:12:34.919Z,0.10
2022-12-19T04:15:04.734Z,0.10
2022-12-19T04:17:42.719Z,0.10
2022-12-19T04:20:15.700Z,0.10
2022-12-19T04:22:52.143Z,0.10
2022-12-19T04:25:30.092Z,0.10
2022-12-19T04:28:05.643Z,0.10
2022-12-19T04:30:36.952Z,0.10
2022-12-19T04:33:06.249Z,0.10
2022-12-19T04:35:38.829Z,0.00
2022-12-19T04:38:08.105Z,-0.10
2022-12-19T04:40:41.739Z,-0.20
2022-12-19T04:43:10.809Z,-0.30
2022-12-19T04:45:42.159Z,-0.30
2022-12-19T04:48:14.182Z,-0.40
2022-12-19T04:50:47.312Z,-0.40
2022-12-19T04:53:18.380Z,-0.40
2022-12-19T04:55:49.230Z,-0.40
2022-12-19T04:58:21.924Z,-0.40
2022-12-19T05:00:50.718Z,-0.50
2022-12-19T05:03:19.374Z,-0.50
2022-12-19T05:05:52.538Z,-0.50
2022-12-19T05:08:21.206Z,-0.60
2022-12-19T05:10:52.119Z,-0.60
2022-12-19T05:13:20.697Z,-0.70
2022-12-19T05:15:59.583Z,-0.80
2022-12-19T05:18:40.505Z,-0.80
2022-12-19T05:21:11.158Z,-0.80
2022-12-19T05:23:40.176Z,-0.90
2022-12-19T05:26:12.666Z,-0.90
2022-12-19T05:28:41.547Z,-1.00
2022-12-19T05:31:12.445Z,-1.00
2022-12-19T05:33:44.460Z,-1.00
2022-12-19T05:36:15.703Z,-1.10
2022-12-19T05:38:47.375Z,-1.10
2022-12-19T05:41:29.148Z,-1.20
2022-12-19T05:43:58.108Z,-1.30
2022-12-19T05:46:29.302Z,-1.30
2022-12-19T05:49:00.113Z,-1.30
2022-12-19T05:51:32.135Z,-1.30
2022-12-19T05:54:03.608Z,-1.40
2022-12-19T05:56:32.339Z,-1.40
2022-12-19T05:59:03.034Z,-1.50
2022-12-19T06:01:32.596Z,-1.50
2022-12-19T06:04:01.413Z,-1.60
2022-12-19T06:06:33.423Z,-1.70
2022-12-19T06:09:02.914Z,-1.70
2022-12-19T06:11:38.484Z,-1.70
2022-12-19T06:14:12.140Z,-1.70
2022-12-19T06:16:40.921Z,-1.70
2022-12-19T06:19:11.927Z,-1.80
2022-12-19T06:21:48.146Z,-1.80
2022-12-19T06:24:17.304Z,-1.90
2022-12-19T06:26:48.731Z,-1.90
2022-12-19T06:29:17.476Z,-1.90
2022-12-19T06:31:46.186Z,-2.00
2022-12-19T06:34:32.866Z,-2.00
2022-12-19T06:37:08.101Z,-2.10
2022-12-19T06:39:39.047Z,-2.10
2022-12-19T06:42:23.813Z,-2.20
2022-12-19T06:44:54.329Z,-2.20
2022-12-19T06:47:27.317Z,-2.30
2022-12-19T06:49:55.929Z,-2.40
2022-12-19T06:52:26.003Z,-2.40
2022-12-19T06:54:54.720Z,-2.40
2022-12-19T06:57:23.240Z,-2.40
2022-12-19T06:59:51.859Z,-2.50
2022-12-19T07:02:27.699Z,-2.50
2022-12-19T07:05:03.577Z,-2.50
2022-12-19T07:07:34.641Z,-2.50
2022-12-19T07:10:03.341Z,-2.60
2022-12-19T07:12:36.811Z,-2.50
2022-12-19T07:15:06.568Z,-2.60
2022-12-19T07:17:41.281Z,-2.50
2022-12-19T07:20:14.660Z,-2.50
2022-12-19T07:22:47.342Z,-2.50
2022-12-19T07:25:18.625Z,-2.50
2022-12-19T07:27:48.713Z,-2.50
2022-12-19T07:30:19.802Z,-2.40
2022-12-19T07:32:48.457Z,-2.50
2022-12-19T07:35:32.533Z,-2.40
2022-12-19T07:38:05.624Z,-2.50
2022-12-19T07:40:34.665Z,-2.50
2022-12-19T07:43:08.020Z,-2.50
2022-12-19T07:45:39.217Z,-2.50
2022-12-19T07:48:08.545Z,-2.50
2022-12-19T07:50:47.024Z,-2.50
2022-12-19T07:53:22.359Z,-2.50
2022-12-19T07:55:52.343Z,-2.50
2022-12-19T07:58:20.916Z,-2.40
2022-12-19T08:00:56.349Z,-2.40
2022-12-19T08:03:28.387Z,-2.40
2022-12-19T08:06:03.355Z,-2.40
2022-12-19T08:08:36.906Z,-2.40
2022-12-19T08:11:17.023Z,-2.30
2022-12-19T08:13:50.986Z,-2.30
2022-12-19T08:16:23.517Z,-2.30
2022-12-19T08:18:52.163Z,-2.30
2022-12-19T08:21:23.122Z,-2.30
2022-12-19T08:23:57.441Z,-2.30
2022-12-19T08:26:30.039Z,-2.30
2022-12-19T08:29:04.274Z,-2.30
2022-12-19T08:31:36.161Z,-2.30
2022-12-19T08:34:07.711Z,-2.30
2022-12-19T08:36:38.171Z,-2.30
2022-12-19T08:39:11.351Z,-2.30
2022-12-19T08:41:40.062Z,-2.30
2022-12-19T08:44:08.649Z,-2.30
2022-12-19T08:46:44.943Z,-2.30
2022-12-19T08:49:22.889Z,-2.20
2022-12-19T08:51:52.780Z,-2.20
2022-12-19T08:54:27.245Z,-2.30
2022-12-19T08:56:55.922Z,-2.20
2022-12-19T08:59:31.254Z,-2.20
2022-12-19T09:02:06.178Z,-2.20
2022-12-19T09:06:00.497Z,-2.30
2022-12-19T09:07:28.082Z,-2.30
2022-12-19T09:10:01.659Z,-2.40
2022-12-19T09:12:30.431Z,-2.40
2022-12-19T09:14:59.011Z,-2.40
2022-12-19T09:17:27.649Z,-2.40
2022-12-19T09:19:56.949Z,-2.40
2022-12-19T09:22:29.278Z,-2.50
2022-12-19T09:24:59.817Z,-2.50
2022-12-19T09:27:47.440Z,-2.50
2022-12-19T09:30:24.547Z,-2.50
2022-12-19T09:32:54.117Z,-2.50
2022-12-19T09:35:27.039Z,-2.60
2022-12-19T09:38:03.720Z,-2.60
2022-12-19T09:40:45.522Z,-2.70
2022-12-19T09:43:26.601Z,-2.70
2022-12-19T09:46:04.346Z,-2.90
2022-12-19T09:48:34.859Z,-2.90
2022-12-19T09:51:11.406Z,-3.00
2022-12-19T09:53:54.970Z,-3.10
2022-12-19T09:56:39.424Z,-3.10
2022-12-19T09:59:22.182Z,-3.10
2022-12-19T10:01:57.643Z,-3.10
2022-12-19T10:04:34.487Z,-3.20
2022-12-19T10:07:21.157Z,-3.30
2022-12-19T10:12:34.738Z,-3.30
2022-12-19T10:13:12.859Z,-3.30
2022-12-19T10:16:00.262Z,-3.30
2022-12-19T10:18:43.021Z,-3.50
2022-12-19T10:21:37.032Z,-3.60
2022-12-19T10:24:55.315Z,-3.70
2022-12-19T10:27:58.647Z,-3.70
2022-12-19T10:30:37.270Z,-3.80
2022-12-19T10:33:20.086Z,-3.90
2022-12-19T10:35:57.448Z,-3.90
2022-12-19T10:38:42.806Z,-4.00
2022-12-19T10:41:22.344Z,-4.10
2022-12-19T10:43:59.226Z,-4.30
2022-12-19T10:46:40.622Z,-4.30
2022-12-19T10:49:21.961Z,-4.40
2022-12-19T10:52:03.358Z,-4.50
2022-12-19T10:54:49.394Z,-4.60
2022-12-19T10:57:26.702Z,-4.60
2022-12-19T11:00:00.613Z,-4.60
2022-12-19T11:02:43.202Z,-4.60
2022-12-19T11:05:28.404Z,-4.70
2022-12-19T11:08:18.227Z,-4.80
2022-12-19T11:13:29.135Z,-4.80
2022-12-19T11:19:41.904Z,-4.80
2022-12-19T11:21:41.810Z,-4.80
2022-12-19T11:29:19.086Z,-4.80
2022-12-19T11:29:42.533Z,-4.90
2022-12-19T11:30:35.710Z,-4.90
2022-12-19T11:30:41.547Z,-4.90
2022-12-19T11:34:10.056Z,-5.00
2022-12-19T11:36:46.351Z,-5.00
2022-12-19T11:39:29.898Z,-5.00
2022-12-19T11:42:07.984Z,-5.00
2022-12-19T11:44:50.655Z,-5.00
2022-12-19T11:47:32.625Z,-5.00
2022-12-19T11:50:06.181Z,-5.00
2022-12-19T11:55:45.040Z,-5.20
2022-12-19T11:58:18.283Z,-5.20
2022-12-19T12:00:56.930Z,-5.20
2022-12-19T12:04:03.304Z,-5.20
2022-12-19T12:06:45.511Z,-5.20
2022-12-19T12:15:16.268Z,-5.20
2022-12-19T12:20:33.131Z,-5.10
2022-12-19T12:27:08.399Z,-5.10
2022-12-19T12:31:15.661Z,-5.10
2022-12-19T12:31:40.619Z,-5.10
2022-12-19T12:31:49.680Z,-5.10
2022-12-19T12:32:02.998Z,-5.10
2022-12-19T12:32:03.193Z,-5.10
2022-12-19T12:35:50.920Z,-5.00
2022-12-19T12:39:56.416Z,-5.00
2022-12-19T12:42:44.494Z,-5.00
2022-12-19T12:45:22.389Z,-5.00
2022-12-19T12:47:53.734Z,-5.10
2022-12-19T12:50:25.300Z,-5.10
2022-12-19T12:52:58.006Z,-5.10
2022-12-19T12:55:31.645Z,-5.10
2022-12-19T12:58:01.029Z,-5.10
2022-12-19T13:00:30.635Z,-5.00
2022-12-19T13:03:06.863Z,-5.00
2022-12-19T13:05:55.299Z,-5.10
2022-12-19T13:08:39.370Z,-5.10
2022-12-19T13:11:36.283Z,-5.10
2022-12-19T13:14:05.443Z,-5.10
2022-12-19T13:16:55.358Z,-5.20
2022-12-19T13:19:28.399Z,-5.10
2022-12-19T13:22:21.287Z,-5.20
2022-12-19T13:24:51.793Z,-5.30
2022-12-19T13:27:40.082Z,-5.30
2022-12-19T13:30:20.672Z,-5.30
2022-12-19T13:33:12.123Z,-5.40
2022-12-19T13:38:40.489Z,-5.40
2022-12-19T13:40:01.194Z,-5.50
2022-12-19T13:41:47.113Z,-5.60
2022-12-19T13:44:20.663Z,-5.60
2022-12-19T13:46:50.066Z,-5.70
2022-12-19T13:49:23.821Z,-5.70
2022-12-19T13:51:59.042Z,-5.80
2022-12-19T13:54:34.860Z,-5.90
2022-12-19T13:57:23.237Z,-5.90
2022-12-19T14:00:00.523Z,-6.00
2022-12-19T14:02:44.991Z,-6.00
2022-12-19T14:05:33.953Z,-6.10
2022-12-19T14:08:20.890Z,-6.20
2022-12-19T14:11:35.937Z,-6.30
2022-12-19T14:14:12.623Z,-6.30
2022-12-19T14:16:46.774Z,-6.30
2022-12-19T14:19:22.937Z,-6.40
2022-12-19T14:22:06.034Z,-6.40
2022-12-19T14:24:42.485Z,-6.50
2022-12-19T14:28:17.738Z,-6.50
2022-12-19T14:30:30.559Z,-6.50
2022-12-19T14:33:47.499Z,-6.50
2022-12-19T14:36:09.761Z,-6.50
2022-12-19T14:39:22.890Z,-6.60
2022-12-19T14:42:02.432Z,-6.60
2022-12-19T14:53:34.018Z,-6.60
2022-12-19T14:53:52.624Z,-6.70
2022-12-19T14:54:31.359Z,-6.70
2022-12-19T14:54:52.769Z,-6.70
2022-12-19T14:59:05.475Z,-6.90
2022-12-19T15:01:39.217Z,-6.90
2022-12-19T15:04:47.662Z,-7.00
2022-12-19T15:07:11.925Z,-7.10
2022-12-19T15:11:04.536Z,-7.10
2022-12-19T15:14:54.328Z,-7.10
2022-12-19T15:16:05.072Z,-7.20
2022-12-19T15:18:41.738Z,-7.30
2022-12-19T15:21:13.886Z,-7.20
2022-12-19T15:23:45.890Z,-7.20
2022-12-19T15:26:17.155Z,-7.10
2022-12-19T15:28:49.730Z,-7.10
2022-12-19T15:31:28.599Z,-7.20
2022-12-19T15:36:46.495Z,-7.30
2022-12-19T15:39:19.130Z,-7.40
2022-12-19T15:41:49.963Z,-7.50
2022-12-19T15:44:22.292Z,-7.40
2022-12-19T15:46:51.079Z,-7.40
2022-12-19T15:49:21.889Z,-7.40
2022-12-19T15:51:51.392Z,-7.30
2022-12-19T15:54:47.874Z,-7.30
2022-12-19T15:57:19.891Z,-7.30
2022-12-19T15:59:49.333Z,-7.40
2022-12-19T16:02:20.432Z,-7.30
2022-12-19T16:04:51.343Z,-7.40
2022-12-19T16:07:22.357Z,-7.30
2022-12-19T16:09:53.095Z,-7.40
2022-12-19T16:12:25.366Z,-7.30
2022-12-19T16:14:58.646Z,-7.30
2022-12-19T16:17:28.364Z,-7.30
2022-12-19T16:19:57.256Z,-7.30
2022-12-19T16:22:27.686Z,-7.40
2022-12-19T16:24:58.483Z,-7.30
2022-12-19T16:27:28.752Z,-7.30
2022-12-19T16:30:18.852Z,-7.30
2022-12-19T16:32:48.180Z,-7.40
2022-12-19T16:35:29.011Z,-7.30
2022-12-19T16:38:07.865Z,-7.30
2022-12-19T16:40:37.914Z,-7.30
2022-12-19T16:43:08.722Z,-7.30
2022-12-19T16:45:39.558Z,-7.20
2022-12-19T16:48:19.439Z,-7.20
2022-12-19T16:50:48.039Z,-7.20
2022-12-19T16:53:16.983Z,-7.20
2022-12-19T16:55:49.764Z,-7.20
2022-12-19T16:58:21.583Z,-7.30
2022-12-19T17:00:52.161Z,-7.20
2022-12-19T17:03:29.651Z,-7.10
2022-12-19T17:05:58.339Z,-7.10
2022-12-19T17:08:26.956Z,-7.10
2022-12-19T17:10:57.088Z,-7.10
2022-12-19T17:13:26.111Z,-7.00
2022-12-19T17:15:57.260Z,-7.00
2022-12-19T17:18:30.071Z,-6.90
2022-12-19T17:20:58.789Z,-6.90
2022-12-19T17:23:30.424Z,-6.90
2022-12-19T17:26:01.136Z,-6.90
2022-12-19T17:28:30.983Z,-6.90
2022-12-19T17:31:03.800Z,-6.80
2022-12-19T17:33:36.906Z,-6.80
2022-12-19T17:36:06.878Z,-6.80
2022-12-19T17:38:36.193Z,-6.80
2022-12-19T17:41:06.305Z,-6.70
2022-12-19T17:43:35.116Z,-6.80
2022-12-19T17:46:03.665Z,-6.80
2022-12-19T17:48:34.306Z,-6.70
2022-12-19T17:51:04.183Z,-6.70
2022-12-19T17:53:32.831Z,-6.80
2022-12-19T17:56:01.381Z,-6.80
2022-12-19T17:58:31.315Z,-6.80
2022-12-19T18:01:00.046Z,-6.80
2022-12-19T18:03:28.714Z,-6.80
2022-12-19T18:05:59.221Z,-6.80
2022-12-19T18:08:30.398Z,-6.70
2022-12-19T18:11:00.856Z,-6.70
2022-12-19T18:13:32.540Z,-6.60
2022-12-19T18:16:03.496Z,-6.60
2022-12-19T18:18:34.941Z,-6.60
2022-12-19T18:21:04.386Z,-6.60
2022-12-19T18:23:33.266Z,-6.60
2022-12-19T18:26:02.985Z,-6.60
2022-12-19T18:28:33.080Z,-6.60
2022-12-19T18:31:05.040Z,-6.60
2022-12-19T18:33:42.465Z,-6.60
2022-12-19T18:36:20.418Z,-6.60
2022-12-19T18:38:50.418Z,-6.50
2022-12-19T18:41:20.576Z,-6.60
2022-12-19T18:43:51.612Z,-6.60
2022-12-19T18:46:27.101Z,-6.60
2022-12-19T18:48:56.657Z,-6.60
2022-12-19T18:51:26.986Z,-6.70
2022-12-19T18:53:55.600Z,-6.60
2022-12-19T18:56:24.429Z,-6.60
2022-12-19T18:58:55.050Z,-6.60
2022-12-19T19:01:23.857Z,-6.50
2022-12-19T19:03:55.542Z,-6.50
2022-12-19T19:06:26.912Z,-6.50
2022-12-19T19:08:57.149Z,-6.40
2022-12-19T19:11:52.355Z,-6.40
2022-12-19T19:14:22.748Z,-6.40
2022-12-19T19:16:52.504Z,-6.40
2022-12-19T19:19:20.855Z,-6.30
2022-12-19T19:21:49.507Z,-6.30
2022-12-19T19:24:20.054Z,-6.30
2022-12-19T19:26:49.699Z,-6.40
2022-12-19T19:29:19.881Z,-6.40
2022-12-19T19:31:53.149Z,-6.40
2022-12-19T19:34:25.081Z,-6.40
2022-12-19T19:36:56.846Z,-6.40
2022-12-19T19:39:27.712Z,-6.40
2022-12-19T19:41:57.282Z,-6.40
2022-12-19T19:44:26.276Z,-6.40
2022-12-19T19:46:56.418Z,-6.50
2022-12-19T19:49:25.305Z,-6.50
2022-12-19T19:51:58.687Z,-6.50
2022-12-19T19:54:31.515Z,-6.50
2022-12-19T19:57:00.168Z,-6.50
2022-12-19T19:59:31.447Z,-6.50
2022-12-19T20:02:02.084Z,-6.50
2022-12-19T20:04:31.210Z,-6.50
2022-12-19T20:06:59.840Z,-6.50
2022-12-19T20:09:28.732Z,-6.40
2022-12-19T20:11:57.508Z,-6.50
2022-12-19T20:14:28.061Z,-6.40
2022-12-19T20:16:56.687Z,-6.40
2022-12-19T20:19:26.656Z,-6.40
2022-12-19T20:21:55.634Z,-6.50
2022-12-19T20:24:24.388Z,-6.40
2022-12-19T20:26:52.907Z,-6.50
2022-12-19T20:29:21.656Z,-6.50
2022-12-19T20:31:50.481Z,-6.60
2022-12-19T20:34:20.138Z,-6.60
2022-12-19T20:36:50.281Z,-6.50
2022-12-19T20:39:22.283Z,-6.50
2022-12-19T20:41:51.474Z,-6.50
2022-12-19T20:44:24.499Z,-6.60
2022-12-19T20:46:53.571Z,-6.60
2022-12-19T20:49:22.355Z,-6.70
2022-12-19T20:51:52.557Z,-6.70
2022-12-19T20:54:21.250Z,-6.80
2022-12-19T20:56:49.877Z,-6.80
2022-12-19T20:59:18.727Z,-6.80
2022-12-19T21:01:47.559Z,-6.80
2022-12-19T21:04:16.805Z,-6.80
2022-12-19T21:06:45.650Z,-6.80
2022-12-19T21:09:15.779Z,-6.90
2022-12-19T21:11:47.793Z,-6.90
2022-12-19T21:14:16.676Z,-6.90
2022-12-19T21:16:45.577Z,-6.90
2022-12-19T21:19:14.219Z,-6.90
2022-12-19T21:21:42.807Z,-7.00
2022-12-19T21:24:11.381Z,-7.00
2022-12-19T21:26:41.686Z,-6.90
2022-12-19T21:29:12.815Z,-7.00
2022-12-19T21:31:41.436Z,-7.00
2022-12-19T21:34:10.693Z,-7.00
2022-12-19T21:36:39.729Z,-6.90
2022-12-19T21:39:09.432Z,-6.90
2022-12-19T21:41:37.968Z,-6.90
2022-12-19T21:44:08.022Z,-6.90
2022-12-19T21:46:37.578Z,-6.90
2022-12-19T21:49:08.932Z,-7.00
2022-12-19T21:51:38.245Z,-6.90
2022-12-19T21:54:07.219Z,-6.90
2022-12-19T21:56:39.098Z,-6.80
2022-12-19T21:59:14.311Z,-6.80
2022-12-19T22:01:43.807Z,-6.80
2022-12-19T22:04:15.082Z,-6.80
2022-12-19T22:06:44.829Z,-6.80
2022-12-19T22:09:18.723Z,-6.80
2022-12-19T22:11:47.899Z,-6.80
2022-12-19T22:14:20.408Z,-6.80
2022-12-19T22:16:49.471Z,-6.80
2022-12-19T22:19:21.510Z,-6.80
2022-12-19T22:21:51.017Z,-6.80
2022-12-19T22:24:20.312Z,-6.70
2022-12-19T22:26:49.450Z,-6.70
2022-12-19T22:29:21.714Z,-6.70
2022-12-19T22:31:51.407Z,-6.60
2022-12-19T22:34:23.301Z,-6.70
2022-12-19T22:36:52.026Z,-6.70
2022-12-19T22:39:22.603Z,-6.70
2022-12-19T22:41:51.432Z,-6.70
2022-12-19T22:44:23.374Z,-6.70
2022-12-19T22:46:52.733Z,-6.80
2022-12-19T22:49:21.690Z,-6.70
2022-12-19T22:51:52.965Z,-6.80
2022-12-19T22:54:22.031Z,-6.80
2022-12-19T22:56:53.100Z,-6.80
2022-12-19T22:59:31.268Z,-6.80
2022-12-19T23:02:04.603Z,-6.70
2022-12-19T23:04:37.520Z,-6.70
2022-12-19T23:07:11.662Z,-6.70
2022-12-19T23:09:43.577Z,-6.70
2022-12-19T23:12:13.138Z,-6.50
2022-12-19T23:14:45.216Z,-6.50
2022-12-19T23:17:13.751Z,-6.50
2022-12-19T23:19:42.418Z,-6.50
2022-12-19T23:22:11.258Z,-6.50
2022-12-19T23:24:40.490Z,-6.50
2022-12-19T23:27:09.696Z,-6.50
2022-12-19T23:29:40.931Z,-6.50
2022-12-19T23:32:11.244Z,-6.50
2022-12-19T23:34:40.625Z,-6.50
2022-12-19T23:37:11.106Z,-6.40
2022-12-19T23:39:43.434Z,-6.40
2022-12-19T23:42:12.705Z,-6.40
2022-12-19T23:44:41.649Z,-6.40
2022-12-19T23:47:11.723Z,-6.30
2022-12-19T23:49:40.514Z,-6.30
2022-12-19T23:52:09.090Z,-6.30
2022-12-19T23:54:37.901Z,-6.30
2022-12-19T23:57:06.617Z,-6.30
2022-12-19T23:59:35.602Z,-6.20
